RJTH(METAR)
10/22 10:00
RJTH 220100Z 08011KT 9999 FEW030 SCTXXX 24/18 Q1017 RMK A3003=
戻る
トップページへ戻る
IMOC Co,.Ltd.